createdAt,value
2023-03-06T00:00:50.527Z,-4.17
2023-03-06T00:03:21.961Z,-4.13
2023-03-06T00:05:51.444Z,-4.15
2023-03-06T00:08:22.577Z,-4.15
2023-03-06T00:10:52.085Z,-4.21
2023-03-06T00:13:23.416Z,-4.28
2023-03-06T00:15:52.527Z,-4.31
2023-03-06T00:18:22.571Z,-4.39
2023-03-06T00:20:52.035Z,-4.37
2023-03-06T00:23:21.334Z,-4.39
2023-03-06T00:25:51.147Z,-4.30
2023-03-06T00:28:21.319Z,-4.33
2023-03-06T00:30:51.052Z,-4.13
2023-03-06T00:33:32.744Z,-4.04
2023-03-06T00:36:08.896Z,-4.22
2023-03-06T00:38:38.576Z,-4.10
2023-03-06T00:41:10.144Z,-4.10
2023-03-06T00:43:40.511Z,-4.08
2023-03-06T00:46:10.611Z,-4.14
2023-03-06T00:48:41.729Z,-4.21
2023-03-06T00:51:13.922Z,-4.22
2023-03-06T00:53:44.965Z,-4.26
2023-03-06T00:56:17.061Z,-4.05
2023-03-06T00:58:47.430Z,-4.19
2023-03-06T01:01:17.430Z,-4.31
2023-03-06T01:03:46.844Z,-4.16
2023-03-06T01:06:16.441Z,-4.26
2023-03-06T01:08:45.952Z,-4.30
2023-03-06T01:11:15.531Z,-4.31
2023-03-06T01:13:46.408Z,-4.24
2023-03-06T01:16:19.507Z,-4.24
2023-03-06T01:18:52.245Z,-4.22
2023-03-06T01:21:21.849Z,-4.18
2023-03-06T01:23:51.516Z,-4.16
2023-03-06T01:26:20.868Z,-4.14
2023-03-06T01:28:50.383Z,-4.14
2023-03-06T01:31:20.475Z,-4.11
2023-03-06T01:33:49.722Z,-4.13
2023-03-06T01:36:20.330Z,-4.09
2023-03-06T01:38:49.840Z,-4.09
2023-03-06T01:41:22.645Z,-4.09
2023-03-06T01:43:52.395Z,-4.13
2023-03-06T01:46:43.182Z,-4.11
2023-03-06T01:49:17.968Z,-4.21
2023-03-06T01:51:55.691Z,-4.22
2023-03-06T01:54:31.218Z,-4.27
2023-03-06T01:57:07.148Z,-4.34
2023-03-06T01:59:39.401Z,-4.26
2023-03-06T02:02:12.000Z,-4.33
2023-03-06T02:04:43.293Z,-4.13
2023-03-06T02:07:14.552Z,-4.24
2023-03-06T02:09:44.797Z,-3.98
2023-03-06T02:12:19.590Z,-3.96
2023-03-06T02:14:50.246Z,-3.69
2023-03-06T02:17:22.196Z,-3.84
2023-03-06T02:20:21.063Z,-3.90
2023-03-06T02:23:06.491Z,-3.89
2023-03-06T02:25:42.001Z,-2.92
2023-03-06T02:28:15.347Z,-3.66
2023-03-06T02:30:46.729Z,-3.85
2023-03-06T02:33:19.360Z,-4.21
2023-03-06T02:35:57.224Z,-3.94
2023-03-06T02:38:33.042Z,-4.38
2023-03-06T02:41:04.986Z,-4.27
2023-03-06T02:43:38.557Z,-2.88
2023-03-06T02:46:08.919Z,-2.88
2023-03-06T02:48:39.108Z,-3.26
2023-03-06T02:51:08.929Z,-2.65
2023-03-06T02:53:38.701Z,-3.77
2023-03-06T02:56:08.629Z,-3.56
2023-03-06T02:58:39.839Z,-2.62
2023-03-06T03:01:09.308Z,-2.47
2023-03-06T03:03:40.221Z,-2.81
2023-03-06T03:06:10.020Z,-1.90
2023-03-06T03:08:40.060Z,-1.81
2023-03-06T03:11:10.572Z,-2.66
2023-03-06T03:13:40.737Z,-2.64
2023-03-06T03:16:16.057Z,-2.81
2023-03-06T03:18:50.573Z,-2.87
2023-03-06T03:22:12.456Z,-3.40
2023-03-06T03:24:47.604Z,-3.82
2023-03-06T03:27:18.127Z,-4.06
2023-03-06T03:29:48.161Z,-4.11
2023-03-06T03:32:40.952Z,-4.14
2023-03-06T03:35:14.878Z,-4.17
2023-03-06T03:37:44.315Z,-4.18
2023-03-06T03:40:15.073Z,-4.16
2023-03-06T03:42:44.622Z,-4.18
2023-03-06T03:45:14.819Z,-4.27
2023-03-06T03:47:44.335Z,-4.23
2023-03-06T03:50:15.407Z,-4.24
2023-03-06T03:52:46.206Z,-4.26
2023-03-06T03:55:16.081Z,-4.27
2023-03-06T03:57:46.336Z,-4.23
2023-03-06T04:00:17.390Z,-3.98
2023-03-06T04:02:49.507Z,-4.13
2023-03-06T04:05:19.454Z,-4.17
2023-03-06T04:07:50.116Z,-4.17
2023-03-06T04:10:20.475Z,-4.18
2023-03-06T04:12:51.788Z,-4.17
2023-03-06T04:15:21.697Z,-4.14
2023-03-06T04:17:51.367Z,-4.15
2023-03-06T04:20:21.809Z,-4.15
2023-03-06T04:22:53.119Z,-4.13
2023-03-06T04:25:23.170Z,-4.10
2023-03-06T04:27:53.405Z,-4.04
2023-03-06T04:30:23.141Z,-3.95
2023-03-06T04:32:53.893Z,-3.86
2023-03-06T04:35:23.555Z,-3.81
2023-03-06T04:37:54.176Z,-3.73
2023-03-06T04:40:34.459Z,-3.63
2023-03-06T04:43:06.314Z,-3.52
2023-03-06T04:45:36.354Z,-3.42
2023-03-06T04:48:06.416Z,-3.33
2023-03-06T04:50:36.363Z,-3.22
2023-03-06T04:53:06.535Z,-3.12
2023-03-06T04:55:35.992Z,-3.02
2023-03-06T04:58:05.549Z,-2.93
2023-03-06T05:00:35.536Z,-2.83
2023-03-06T05:03:05.239Z,-2.71
2023-03-06T05:05:35.100Z,-2.59
2023-03-06T05:08:04.599Z,-2.56
2023-03-06T05:10:34.142Z,-2.52
2023-03-06T05:13:04.217Z,-2.46
2023-03-06T05:15:33.570Z,-2.42
2023-03-06T05:18:03.060Z,-2.40
2023-03-06T05:20:32.871Z,-2.35
2023-03-06T05:23:02.537Z,-2.30
2023-03-06T05:25:32.926Z,-2.25
2023-03-06T05:28:02.189Z,-2.26
2023-03-06T05:30:33.787Z,-2.27
2023-03-06T05:33:03.662Z,-2.26
2023-03-06T05:35:33.205Z,-2.22
2023-03-06T05:38:02.833Z,-2.22
2023-03-06T05:40:32.462Z,-2.27
2023-03-06T05:43:01.912Z,-2.28
2023-03-06T05:45:31.565Z,-2.16
2023-03-06T05:48:01.361Z,-2.19
2023-03-06T05:50:30.668Z,-2.09
2023-03-06T05:53:00.702Z,-2.03
2023-03-06T05:55:30.189Z,-1.99
2023-03-06T05:57:59.698Z,-1.84
2023-03-06T06:00:30.228Z,-1.77
2023-03-06T06:03:02.599Z,-1.68
2023-03-06T06:05:32.003Z,-1.64
2023-03-06T06:08:03.148Z,-1.65
2023-03-06T06:10:32.251Z,-1.51
2023-03-06T06:13:01.601Z,-1.43
2023-03-06T06:15:31.744Z,-1.39
2023-03-06T06:18:02.877Z,-1.25
2023-03-06T06:20:32.033Z,-1.18
2023-03-06T06:23:01.683Z,-1.19
2023-03-06T06:25:32.953Z,-1.14
2023-03-06T06:28:04.141Z,-0.96
2023-03-06T06:30:34.453Z,-1.03
2023-03-06T06:33:05.247Z,-0.93
2023-03-06T06:35:37.900Z,-0.72
2023-03-06T06:38:07.907Z,-0.63
2023-03-06T06:40:37.628Z,-0.64
2023-03-06T06:43:07.083Z,-0.85
2023-03-06T06:45:38.057Z,-0.88
2023-03-06T06:48:07.549Z,-0.93
2023-03-06T06:50:37.245Z,-0.94
2023-03-06T06:53:06.629Z,-0.96
2023-03-06T06:55:36.912Z,-0.95
2023-03-06T06:58:06.586Z,-0.76
2023-03-06T07:00:35.804Z,-0.71
2023-03-06T07:03:11.890Z,-0.81
2023-03-06T07:05:41.350Z,-0.85
2023-03-06T07:08:11.396Z,-0.80
2023-03-06T07:10:40.877Z,-0.71
2023-03-06T07:13:11.606Z,-0.63
2023-03-06T07:15:41.365Z,-0.53
2023-03-06T07:18:11.143Z,-0.34
2023-03-06T07:20:41.044Z,-0.34
2023-03-06T07:23:14.143Z,-0.35
2023-03-06T07:25:43.750Z,0.00
2023-03-06T07:28:14.881Z,0.24
2023-03-06T07:30:45.247Z,0.08
2023-03-06T07:33:15.740Z,0.23
2023-03-06T07:35:45.194Z,0.51
2023-03-06T07:38:15.081Z,0.85
2023-03-06T07:40:44.568Z,1.12
2023-03-06T07:43:19.463Z,1.57
2023-03-06T07:45:57.478Z,1.75
2023-03-06T07:48:28.848Z,1.31
2023-03-06T07:51:01.747Z,1.53
2023-03-06T07:53:31.708Z,1.70
2023-03-06T07:56:02.084Z,1.53
2023-03-06T07:58:31.852Z,1.42
2023-03-06T08:01:05.735Z,1.70
2023-03-06T08:03:36.036Z,1.69
2023-03-06T08:06:08.408Z,1.59
2023-03-06T08:08:42.023Z,1.48
2023-03-06T08:11:14.355Z,1.29
2023-03-06T08:13:44.452Z,0.96
2023-03-06T08:16:14.029Z,0.86
2023-03-06T08:18:46.246Z,0.76
2023-03-06T08:21:18.405Z,1.37
2023-03-06T08:23:49.504Z,1.55
2023-03-06T08:26:21.840Z,1.92
2023-03-06T08:28:53.211Z,1.65
2023-03-06T08:31:36.910Z,1.62
2023-03-06T08:34:10.038Z,1.63
2023-03-06T08:36:39.457Z,1.49
2023-03-06T08:39:09.815Z,1.42
2023-03-06T08:41:39.863Z,0.78
2023-03-06T08:44:10.190Z,1.24
2023-03-06T08:46:39.657Z,0.79
2023-03-06T08:49:13.411Z,1.28
2023-03-06T08:51:43.208Z,0.36
2023-03-06T08:54:14.383Z,0.45
2023-03-06T08:56:43.903Z,0.37
2023-03-06T08:59:14.559Z,0.32
2023-03-06T09:01:45.947Z,0.92
2023-03-06T09:04:16.342Z,0.99
2023-03-06T09:06:45.890Z,1.40
2023-03-06T09:09:17.390Z,1.44
2023-03-06T09:11:46.662Z,1.24
2023-03-06T09:14:16.872Z,1.07
2023-03-06T09:16:47.383Z,1.26
2023-03-06T09:19:17.215Z,1.30
2023-03-06T09:21:46.514Z,0.97
2023-03-06T09:24:15.856Z,0.92
2023-03-06T09:26:47.162Z,1.05
2023-03-06T09:29:18.287Z,0.73
2023-03-06T09:31:48.286Z,0.47
2023-03-06T09:34:17.586Z,0.46
2023-03-06T09:36:56.519Z,1.26
2023-03-06T09:39:27.936Z,1.44
2023-03-06T09:41:59.348Z,1.60
2023-03-06T09:44:33.374Z,1.55
2023-03-06T09:47:20.081Z,2.10
2023-03-06T09:50:01.817Z,1.99
2023-03-06T09:52:54.904Z,1.99
2023-03-06T09:55:29.999Z,2.01
2023-03-06T09:58:17.441Z,2.40
2023-03-06T10:01:03.490Z,2.91
2023-03-06T10:03:40.578Z,2.79
2023-03-06T10:06:32.118Z,1.77
2023-03-06T10:09:13.465Z,2.19
2023-03-06T10:11:48.048Z,1.92
2023-03-06T10:14:21.552Z,1.79
2023-03-06T10:16:51.541Z,1.46
2023-03-06T10:19:23.040Z,1.16
2023-03-06T10:22:31.663Z,1.15
2023-03-06T10:25:28.573Z,1.36
2023-03-06T10:28:19.970Z,1.73
2023-03-06T10:30:53.932Z,1.58
2023-03-06T10:33:47.691Z,1.89
2023-03-06T10:36:19.537Z,1.76
2023-03-06T10:38:49.832Z,1.64
2023-03-06T10:41:37.412Z,1.51
2023-03-06T10:44:26.501Z,1.89
2023-03-06T10:46:56.955Z,1.56
2023-03-06T10:49:30.842Z,1.85
2023-03-06T10:52:06.158Z,1.61
2023-03-06T10:54:41.443Z,1.69
2023-03-06T10:57:31.967Z,1.50
2023-03-06T11:00:24.044Z,1.38
2023-03-06T11:03:24.215Z,1.37
2023-03-06T11:06:02.392Z,1.97
2023-03-06T11:08:33.008Z,2.02
2023-03-06T11:11:05.917Z,2.31
2023-03-06T11:13:39.080Z,2.81
2023-03-06T11:16:31.383Z,3.23
2023-03-06T11:19:07.717Z,3.11
2023-03-06T11:21:40.768Z,2.37
2023-03-06T11:24:20.265Z,2.92
2023-03-06T11:27:31.293Z,2.19
2023-03-06T11:30:03.717Z,0.80
2023-03-06T11:32:45.857Z,0.51
2023-03-06T11:35:23.552Z,0.14
2023-03-06T11:38:05.716Z,1.29
2023-03-06T11:40:46.782Z,0.09
2023-03-06T11:43:42.166Z,0.77
2023-03-06T11:46:29.914Z,0.19
2023-03-06T11:49:26.138Z,0.36
2023-03-06T11:51:58.789Z,0.68
2023-03-06T11:54:28.487Z,0.93
2023-03-06T11:57:05.743Z,0.37
2023-03-06T11:59:56.099Z,0.13
2023-03-06T12:02:26.589Z,0.91
2023-03-06T12:05:27.259Z,0.27
2023-03-06T12:08:27.993Z,0.35
2023-03-06T12:11:14.468Z,0.25
2023-03-06T12:14:13.241Z,0.73
2023-03-06T12:16:53.770Z,0.16
2023-03-06T12:20:02.993Z,0.37
2023-03-06T12:22:53.309Z,0.20
2023-03-06T12:25:35.334Z,-0.11
2023-03-06T12:28:25.402Z,0.27
2023-03-06T12:31:33.748Z,0.27
2023-03-06T12:34:19.903Z,0.36
2023-03-06T12:37:14.991Z,0.17
2023-03-06T12:39:57.294Z,0.24
2023-03-06T12:42:52.734Z,0.12
2023-03-06T12:45:24.489Z,0.16
2023-03-06T12:47:57.549Z,-0.04
2023-03-06T12:50:30.118Z,-0.09
2023-03-06T12:53:04.047Z,-0.17
2023-03-06T12:55:42.492Z,-0.42
2023-03-06T12:58:32.137Z,-0.16
2023-03-06T13:01:41.314Z,-0.04
2023-03-06T13:04:37.533Z,0.19
2023-03-06T13:07:47.591Z,0.35
2023-03-06T13:10:35.199Z,0.39
2023-03-06T13:13:34.260Z,0.70
2023-03-06T13:16:25.529Z,0.37
2023-03-06T13:19:05.824Z,0.08
2023-03-06T13:21:44.114Z,-0.06
2023-03-06T13:24:28.415Z,-0.28
2023-03-06T13:27:07.827Z,-0.47
2023-03-06T13:29:39.942Z,-0.67
2023-03-06T13:32:19.609Z,-0.77
2023-03-06T13:34:52.786Z,-0.86
2023-03-06T13:37:52.015Z,-0.85
2023-03-06T13:40:34.931Z,-0.67
2023-03-06T13:43:19.000Z,-0.68
2023-03-06T13:45:50.901Z,-0.82
2023-03-06T13:48:44.119Z,-0.92
2023-03-06T13:51:25.546Z,-0.70
2023-03-06T13:54:37.256Z,-0.56
2023-03-06T13:57:28.452Z,-0.69
2023-03-06T14:00:08.702Z,-0.71
2023-03-06T14:03:10.823Z,-0.73
2023-03-06T14:05:45.768Z,-0.36
2023-03-06T14:08:21.774Z,0.01
2023-03-06T14:11:06.358Z,1.38
2023-03-06T14:13:47.858Z,1.72
2023-03-06T14:16:49.973Z,3.13
2023-03-06T14:19:21.150Z,2.91
2023-03-06T14:21:57.324Z,3.41
2023-03-06T14:24:42.231Z,3.22
2023-03-06T14:27:19.695Z,2.99
2023-03-06T14:29:50.631Z,1.76
2023-03-06T14:32:23.870Z,2.09
2023-03-06T14:34:54.256Z,2.31
2023-03-06T14:37:25.702Z,1.95
2023-03-06T14:39:57.046Z,0.44
2023-03-06T14:42:29.014Z,-0.30
2023-03-06T14:45:18.878Z,-0.93
2023-03-06T14:47:54.561Z,-1.35
2023-03-06T14:50:29.028Z,-1.90
2023-03-06T14:53:14.604Z,-2.18
2023-03-06T14:56:03.116Z,-2.25
2023-03-06T14:58:55.088Z,-2.29
2023-03-06T15:01:33.989Z,-2.37
2023-03-06T15:04:08.188Z,-2.53
2023-03-06T15:06:43.348Z,-2.55
2023-03-06T15:09:21.269Z,-2.69
2023-03-06T15:12:28.033Z,-2.78
2023-03-06T15:15:04.363Z,-2.82
2023-03-06T15:17:44.223Z,-3.05
2023-03-06T15:20:43.560Z,-3.04
2023-03-06T15:23:41.707Z,-2.84
2023-03-06T15:26:31.908Z,-2.62
2023-03-06T15:29:09.419Z,-2.90
2023-03-06T15:31:41.842Z,-2.79
2023-03-06T15:34:12.508Z,-3.43
2023-03-06T15:36:52.064Z,-3.59
2023-03-06T15:39:33.453Z,-3.66
2023-03-06T15:42:25.623Z,-3.97
2023-03-06T15:45:14.276Z,-4.01
2023-03-06T15:47:46.251Z,-3.77
2023-03-06T15:50:20.054Z,-3.96
2023-03-06T15:52:52.062Z,-3.92
2023-03-06T15:55:26.781Z,-3.72
2023-03-06T15:58:00.585Z,-3.87
2023-03-06T16:00:35.157Z,-3.88
2023-03-06T16:03:05.470Z,-3.78
2023-03-06T16:05:34.856Z,-3.79
2023-03-06T16:08:05.894Z,-4.08
2023-03-06T16:10:38.430Z,-4.43
2023-03-06T16:13:14.308Z,-4.36
2023-03-06T16:15:49.785Z,-4.28
2023-03-06T16:18:20.424Z,-4.10
2023-03-06T16:20:51.576Z,-4.08
2023-03-06T16:23:22.017Z,-3.85
2023-03-06T16:25:51.339Z,-3.27
2023-03-06T16:28:20.474Z,-3.48
2023-03-06T16:30:50.647Z,-3.32
2023-03-06T16:33:20.340Z,-4.11
2023-03-06T16:36:01.260Z,-4.07
2023-03-06T16:38:30.687Z,-4.53
2023-03-06T16:41:00.719Z,-4.49
2023-03-06T16:43:30.065Z,-4.54
2023-03-06T16:45:59.573Z,-4.50
2023-03-06T16:48:30.745Z,-4.56
2023-03-06T16:51:00.443Z,-3.85
2023-03-06T16:53:30.045Z,-4.59
2023-03-06T16:55:59.639Z,-4.28
2023-03-06T16:58:29.753Z,-3.78
2023-03-06T17:01:01.299Z,-3.60
2023-03-06T17:03:30.669Z,-3.70
2023-03-06T17:06:01.336Z,-4.70
2023-03-06T17:08:31.278Z,-4.44
2023-03-06T17:11:06.134Z,-4.77
2023-03-06T17:13:35.708Z,-4.81
2023-03-06T17:16:07.136Z,-4.36
2023-03-06T17:18:37.418Z,-4.51
2023-03-06T17:21:09.463Z,-4.42
2023-03-06T17:23:39.765Z,-3.72
2023-03-06T17:26:19.640Z,-3.88
2023-03-06T17:28:49.184Z,-4.50
2023-03-06T17:31:23.826Z,-4.75
2023-03-06T17:33:57.386Z,-4.76
2023-03-06T17:36:28.732Z,-4.42
2023-03-06T17:39:00.345Z,-4.63
2023-03-06T17:41:30.908Z,-4.74
2023-03-06T17:44:00.429Z,-4.95
2023-03-06T17:46:32.724Z,-4.94
2023-03-06T17:49:02.303Z,-4.29
2023-03-06T17:51:32.041Z,-3.94
2023-03-06T17:54:01.598Z,-3.62
2023-03-06T17:56:31.016Z,-4.09
2023-03-06T17:59:01.100Z,-3.86
2023-03-06T18:01:31.477Z,-3.94
2023-03-06T18:04:03.046Z,-4.44
2023-03-06T18:06:34.078Z,-4.40
2023-03-06T18:09:04.831Z,-4.72
2023-03-06T18:11:34.564Z,-4.97
2023-03-06T18:14:05.618Z,-4.33
2023-03-06T18:16:35.080Z,-4.34
2023-03-06T18:19:14.898Z,-4.29
2023-03-06T18:21:44.000Z,-3.88
2023-03-06T18:24:25.743Z,-4.20
2023-03-06T18:27:04.417Z,-3.93
2023-03-06T18:29:34.613Z,-3.75
2023-03-06T18:32:05.201Z,-4.33
2023-03-06T18:34:35.158Z,-3.93
2023-03-06T18:37:04.482Z,-3.50
2023-03-06T18:39:34.038Z,-3.97
2023-03-06T18:42:05.003Z,-4.01
2023-03-06T18:44:34.554Z,-3.22
2023-03-06T18:47:07.492Z,-3.54
2023-03-06T18:49:43.128Z,-2.49
2023-03-06T18:52:17.081Z,-2.45
2023-03-06T18:54:49.349Z,-3.02
2023-03-06T18:57:19.048Z,-2.74
2023-03-06T18:59:49.073Z,-4.71
2023-03-06T19:02:21.199Z,-4.69
2023-03-06T19:04:52.906Z,-3.29
2023-03-06T19:07:22.907Z,-2.83
2023-03-06T19:09:52.123Z,-3.37
2023-03-06T19:12:22.212Z,-3.72
2023-03-06T19:14:52.496Z,-4.26
2023-03-06T19:17:23.977Z,-4.23
2023-03-06T19:19:58.621Z,-2.56
2023-03-06T19:22:28.689Z,-2.84
2023-03-06T19:25:03.638Z,-2.68
2023-03-06T19:27:33.438Z,-2.58
2023-03-06T19:30:05.543Z,-2.97
2023-03-06T19:32:35.410Z,-3.17
2023-03-06T19:35:06.450Z,-3.05
2023-03-06T19:37:37.155Z,-3.23
2023-03-06T19:40:08.784Z,-3.21
2023-03-06T19:42:40.843Z,-2.87
2023-03-06T19:45:11.824Z,-2.51
2023-03-06T19:47:41.256Z,-3.10
2023-03-06T19:50:13.832Z,-2.96
2023-03-06T19:52:43.773Z,-3.57
2023-03-06T19:55:14.262Z,-2.67
2023-03-06T19:57:44.227Z,-2.20
2023-03-06T20:00:15.077Z,-2.29
2023-03-06T20:02:44.764Z,-1.99
2023-03-06T20:05:14.080Z,-1.96
2023-03-06T20:07:43.758Z,-1.92
2023-03-06T20:10:14.669Z,-1.89
2023-03-06T20:12:43.935Z,-1.95
2023-03-06T20:15:14.018Z,-1.87
2023-03-06T20:17:43.271Z,-1.81
2023-03-06T20:20:14.656Z,-1.80
2023-03-06T20:22:44.021Z,-1.79
2023-03-06T20:25:14.191Z,-1.81
2023-03-06T20:27:44.924Z,-1.83
2023-03-06T20:30:15.217Z,-1.87
2023-03-06T20:32:44.751Z,-1.91
2023-03-06T20:35:14.896Z,-1.95
2023-03-06T20:37:44.145Z,-1.93
2023-03-06T20:40:14.233Z,-1.98
2023-03-06T20:42:47.127Z,-2.07
2023-03-06T20:45:16.372Z,-2.07
2023-03-06T20:47:48.012Z,-2.09
2023-03-06T20:50:23.362Z,-2.12
2023-03-06T20:52:56.470Z,-2.14
2023-03-06T20:55:26.156Z,-2.18
2023-03-06T20:57:55.986Z,-2.17
2023-03-06T21:00:26.363Z,-2.40
2023-03-06T21:02:59.631Z,-2.31
2023-03-06T21:05:29.148Z,-2.25
2023-03-06T21:07:59.010Z,-2.21
2023-03-06T21:10:28.235Z,-2.23
2023-03-06T21:12:57.759Z,-2.16
2023-03-06T21:15:30.741Z,-2.14
2023-03-06T21:17:59.953Z,-2.16
2023-03-06T21:20:30.726Z,-2.19
2023-03-06T21:23:02.536Z,-2.21
2023-03-06T21:25:33.581Z,-2.24
2023-03-06T21:28:06.557Z,-2.15
2023-03-06T21:30:36.486Z,-2.17
2023-03-06T21:33:05.731Z,-2.35
2023-03-06T21:35:40.637Z,-2.37
2023-03-06T21:38:10.159Z,-2.33
2023-03-06T21:40:40.421Z,-2.20
2023-03-06T21:43:09.865Z,-2.24
2023-03-06T21:45:43.852Z,-2.18
2023-03-06T21:48:13.567Z,-2.19
2023-03-06T21:50:44.045Z,-2.73
2023-03-06T21:53:13.403Z,-2.47
2023-03-06T21:55:49.266Z,-2.49
2023-03-06T21:58:18.966Z,-2.31
2023-03-06T22:00:48.226Z,-2.44
2023-03-06T22:03:17.888Z,-2.36
2023-03-06T22:05:47.459Z,-2.39
2023-03-06T22:08:16.561Z,-2.57
2023-03-06T22:10:48.526Z,-2.46
2023-03-06T22:13:17.812Z,-2.78
2023-03-06T22:15:52.661Z,-3.89
2023-03-06T22:18:22.657Z,-3.69
2023-03-06T22:20:52.812Z,-3.43
2023-03-06T22:23:22.088Z,-3.56
2023-03-06T22:25:51.518Z,-3.49
2023-03-06T22:28:21.963Z,-4.01
2023-03-06T22:30:51.225Z,-3.34
2023-03-06T22:33:20.854Z,-3.04
2023-03-06T22:35:50.328Z,-3.16
2023-03-06T22:38:19.746Z,-2.67
2023-03-06T22:40:49.622Z,-2.82
2023-03-06T22:43:20.832Z,-3.21
2023-03-06T22:45:53.376Z,-2.65
2023-03-06T22:48:23.678Z,-3.48
2023-03-06T22:50:54.470Z,-3.13
2023-03-06T22:53:23.814Z,-2.41
2023-03-06T22:55:54.081Z,-2.34
2023-03-06T22:58:23.457Z,-2.28
2023-03-06T23:00:53.052Z,-2.91
2023-03-06T23:03:23.106Z,-2.41
2023-03-06T23:05:52.587Z,-2.82
2023-03-06T23:08:22.364Z,-2.36
2023-03-06T23:11:11.601Z,-2.81
2023-03-06T23:13:56.260Z,-3.28
2023-03-06T23:16:41.205Z,-2.91
2023-03-06T23:19:25.459Z,-2.62
2023-03-06T23:22:09.809Z,-3.03
2023-03-06T23:24:53.821Z,-2.31
2023-03-06T23:27:24.138Z,-2.06
2023-03-06T23:29:58.091Z,-2.15
2023-03-06T23:32:27.825Z,-2.03
2023-03-06T23:34:57.038Z,-2.20
2023-03-06T23:37:26.552Z,-1.98
2023-03-06T23:39:56.900Z,-1.92
2023-03-06T23:42:26.434Z,-2.58
2023-03-06T23:44:56.416Z,-2.13
2023-03-06T23:47:25.789Z,-1.97
2023-03-06T23:49:55.917Z,-2.32
2023-03-06T23:52:25.632Z,-2.17
2023-03-06T23:54:55.344Z,-2.05
2023-03-06T23:57:26.764Z,-2.25
2023-03-06T23:59:56.197Z,-2.32
